Time;durP1;ratioP1;P1;durP2;ratioP2;P2;SDS_P1;SDS_P2;PMS_P1;PMS_P2;Temp;Humidity;BMP_temperature;BMP_pressure;BME280_temperature;BME280_humidity;BME280_pressure;Samples;Min_cycle;Max_cycle;Signal;HPM_P1;HPM_P2
2023/05/10 04:02:50;;;;;;;1.60;0.70;;;15.20;85.80;;;;;;5096889;22;20495;-72
2023/05/10 04:05:17;;;;;;;1.90;0.70;;;15.10;85.90;;;;;;5033029;28;20439;-71
2023/05/10 04:07:44;;;;;;;1.80;0.80;;;15.00;86.20;;;;;;5033056;28;20435;-71
2023/05/10 04:10:11;;;;;;;1.83;0.87;;;15.00;86.50;;;;;;5033089;28;20531;-71
2023/05/10 04:12:38;;;;;;;1.50;0.60;;;15.20;86.40;;;;;;5032981;28;20546;-72
2023/05/10 04:15:06;;;;;;;2.00;0.70;;;15.20;86.00;;;;;;5056268;23;20507;-77
2023/05/10 04:17:33;;;;;;;1.60;0.67;;;15.10;85.90;;;;;;5033264;28;20554;-77
2023/05/10 04:20:01;;;;;;;1.60;0.70;;;15.10;85.80;;;;;;5032727;28;20932;-77
2023/05/10 04:22:28;;;;;;;1.50;0.67;;;15.20;86.00;;;;;;5032586;28;21073;-77
2023/05/10 04:24:55;;;;;;;1.70;0.70;;;15.20;85.70;;;;;;5032890;28;20468;-77
2023/05/10 04:27:22;;;;;;;1.60;0.80;;;15.20;85.90;;;;;;5032914;28;20863;-78
2023/05/10 04:29:50;;;;;;;1.70;0.70;;;15.20;85.70;;;;;;5032869;28;20448;-78
2023/05/10 04:32:17;;;;;;;1.60;0.70;;;15.30;85.40;;;;;;5032559;28;20455;-77
2023/05/10 04:34:43;;;;;;;1.60;0.70;;;15.40;84.70;;;;;;5032971;28;20840;-78
2023/05/10 04:37:11;;;;;;;2.03;0.60;;;15.30;85.30;;;;;;5032940;28;20447;-77
2023/05/10 04:39:38;;;;;;;1.60;0.70;;;15.30;85.50;;;;;;5036127;28;20450;-78
2023/05/10 04:42:06;;;;;;;1.90;0.80;;;15.30;85.30;;;;;;5036410;28;21033;-78
2023/05/10 04:44:32;;;;;;;3.70;0.80;;;15.30;85.50;;;;;;5037024;28;20542;-79
2023/05/10 04:46:59;;;;;;;2.03;0.80;;;15.40;85.50;;;;;;5037714;28;20513;-78
2023/05/10 04:49:25;;;;;;;1.67;0.73;;;15.60;85.10;;;;;;5037230;28;20509;-78
2023/05/10 04:51:52;;;;;;;2.53;0.80;;;15.50;84.70;;;;;;5045574;28;20444;-78
2023/05/10 04:54:20;;;;;;;1.57;0.67;;;15.60;84.70;;;;;;5049208;28;20471;-79
2023/05/10 04:56:47;;;;;;;1.50;0.67;;;15.80;84.30;;;;;;5044451;28;20448;-78
2023/05/10 04:59:13;;;;;;;1.60;0.80;;;15.80;83.90;;;;;;5037364;28;20455;-76
2023/05/10 05:01:40;;;;;;;1.73;0.70;;;15.90;83.70;;;;;;5036050;28;20475;-78
2023/05/10 05:04:07;;;;;;;2.27;0.70;;;15.90;83.80;;;;;;5035977;28;20494;-76
2023/05/10 05:06:34;;;;;;;1.73;0.90;;;16.00;83.80;;;;;;5036113;28;20534;-77
2023/05/10 05:09:01;;;;;;;2.03;0.80;;;16.10;83.40;;;;;;5036502;28;20502;-77
2023/05/10 05:11:29;;;;;;;1.60;0.70;;;16.20;83.30;;;;;;5035954;28;20444;-77
2023/05/10 05:13:55;;;;;;;2.07;1.20;;;16.30;82.80;;;;;;5035469;28;20988;-77
2023/05/10 05:16:22;;;;;;;1.60;0.83;;;16.30;82.60;;;;;;5035857;28;20451;-76
2023/05/10 05:18:49;;;;;;;1.90;0.80;;;16.40;82.70;;;;;;5036340;28;20515;-77
2023/05/10 05:21:16;;;;;;;1.50;0.70;;;16.40;82.50;;;;;;5035688;28;20483;-76
2023/05/10 05:23:43;;;;;;;1.60;0.70;;;16.00;82.50;;;;;;5035785;28;20480;-77
2023/05/10 05:26:10;;;;;;;1.70;0.90;;;16.00;83.10;;;;;;5036233;28;20941;-77
2023/05/10 05:28:38;;;;;;;1.60;0.90;;;16.00;83.60;;;;;;5035897;28;20458;-76
2023/05/10 05:31:07;;;;;;;1.50;0.60;;;16.00;83.30;;;;;;5035618;28;20446;-77
2023/05/10 05:33:33;;;;;;;2.17;0.90;;;15.90;83.70;;;;;;5035501;28;20444;-76
2023/05/10 05:36:01;;;;;;;1.60;0.70;;;16.00;84.10;;;;;;5035539;28;20448;-76
2023/05/10 05:38:28;;;;;;;1.50;0.70;;;15.80;83.50;;;;;;5035757;28;20440;-76
2023/05/10 05:40:55;;;;;;;1.90;0.83;;;15.80;84.20;;;;;;5035452;28;20549;-76
2023/05/10 05:43:21;;;;;;;2.30;0.70;;;15.70;84.90;;;;;;5035343;28;20454;-77
2023/05/10 05:45:49;;;;;;;2.10;0.80;;;15.40;85.40;;;;;;5035589;28;20513;-77
2023/05/10 05:48:16;;;;;;;1.50;0.70;;;15.50;85.60;;;;;;5035251;28;20456;-77
2023/05/10 05:50:43;;;;;;;2.00;0.90;;;15.70;85.50;;;;;;5034507;28;20448;-77
2023/05/10 05:53:09;;;;;;;3.03;1.17;;;15.80;84.90;;;;;;5035169;28;20505;-77
2023/05/10 05:55:36;;;;;;;2.70;0.80;;;15.90;84.70;;;;;;5035052;28;20467;-77
2023/05/10 05:58:03;;;;;;;3.63;0.80;;;16.00;84.60;;;;;;5035145;28;20447;-77
2023/05/10 06:00:30;;;;;;;2.10;1.00;;;15.90;84.10;;;;;;5035106;28;20483;-77
2023/05/10 06:02:58;;;;;;;1.60;0.77;;;16.10;84.50;;;;;;5034895;28;20483;-77
2023/05/10 06:05:24;;;;;;;2.50;0.80;;;16.20;83.90;;;;;;5034553;28;20881;-76
2023/05/10 06:07:51;;;;;;;1.80;0.80;;;16.00;83.50;;;;;;5034567;28;21002;-76
2023/05/10 06:10:18;;;;;;;1.50;0.70;;;16.00;84.50;;;;;;5034540;28;21018;-76
2023/05/10 06:12:44;;;;;;;3.60;0.87;;;16.20;84.30;;;;;;5034510;28;20952;-76
2023/05/10 06:15:12;;;;;;;1.50;0.70;;;16.20;83.50;;;;;;5034355;28;20479;-77
2023/05/10 06:17:39;;;;;;;1.50;0.77;;;16.40;83.70;;;;;;5034709;28;20478;-77
2023/05/10 06:20:09;;;;;;;1.60;0.80;;;16.60;83.50;;;;;;5035004;28;20538;-77
2023/05/10 06:22:36;;;;;;;1.70;0.80;;;16.70;82.70;;;;;;5034572;28;20494;-76
2023/05/10 06:25:02;;;;;;;1.60;0.77;;;16.80;82.20;;;;;;5034495;28;20471;-76
2023/05/10 06:27:29;;;;;;;1.60;0.80;;;16.50;82.30;;;;;;5034247;28;21003;-76
2023/05/10 06:29:56;;;;;;;1.87;1.00;;;16.30;83.40;;;;;;5034476;28;20864;-77
2023/05/10 06:32:22;;;;;;;1.60;0.70;;;16.20;84.00;;;;;;5034388;28;20455;-76
2023/05/10 06:34:49;;;;;;;1.80;0.90;;;16.20;84.20;;;;;;5034264;28;20558;-77
2023/05/10 06:37:17;;;;;;;1.90;0.93;;;16.20;84.30;;;;;;5034278;28;20444;-76
2023/05/10 06:39:44;;;;;;;1.70;0.80;;;16.50;84.30;;;;;;5034259;28;20443;-76
2023/05/10 06:42:10;;;;;;;1.60;0.70;;;16.40;84.10;;;;;;5033830;28;20996;-76
2023/05/10 06:44:37;;;;;;;1.70;0.80;;;16.50;83.80;;;;;;5033771;28;20891;-77
2023/05/10 06:47:04;;;;;;;1.50;0.70;;;16.30;83.70;;;;;;5034154;28;20456;-76
2023/05/10 06:49:31;;;;;;;1.80;0.80;;;16.20;84.30;;;;;;5034089;28;20448;-76
2023/05/10 06:51:57;;;;;;;2.10;0.80;;;16.40;84.50;;;;;;5034046;28;20443;-76
2023/05/10 06:54:25;;;;;;;1.60;0.70;;;16.30;83.80;;;;;;5033931;28;20467;-76
2023/05/10 06:56:52;;;;;;;1.70;0.70;;;16.10;84.60;;;;;;5034203;28;20451;-76
2023/05/10 06:59:21;;;;;;;3.10;1.10;;;16.00;84.50;;;;;;5034208;28;20461;-76
2023/05/10 07:01:47;;;;;;;1.93;1.10;;;15.90;84.30;;;;;;5033435;28;21019;-76
2023/05/10 07:04:14;;;;;;;2.10;0.90;;;16.00;84.80;;;;;;5033727;28;20474;-76
2023/05/10 07:06:41;;;;;;;1.60;0.80;;;16.00;84.20;;;;;;5033828;28;20444;-76
2023/05/10 07:09:08;;;;;;;2.53;0.80;;;15.80;85.10;;;;;;5033758;28;20448;-76
2023/05/10 07:11:37;;;;;;;1.90;0.97;;;15.90;85.00;;;;;;5033857;28;20527;-76
2023/05/10 07:14:04;;;;;;;1.67;0.80;;;16.10;85.30;;;;;;5033489;28;20541;-76
2023/05/10 07:16:30;;;;;;;2.97;0.80;;;16.10;84.90;;;;;;5033370;28;20955;-77
2023/05/10 07:18:57;;;;;;;1.90;0.80;;;16.10;85.60;;;;;;5033685;28;20490;-77
2023/05/10 07:21:24;;;;;;;2.37;1.17;;;16.20;85.10;;;;;;5033237;28;21000;-77
2023/05/10 07:23:51;;;;;;;1.53;0.70;;;16.20;84.80;;;;;;5033551;28;20566;-77
2023/05/10 07:26:18;;;;;;;2.47;1.00;;;16.20;83.90;;;;;;5033582;28;20540;-77
2023/05/10 07:28:46;;;;;;;1.90;1.00;;;16.20;85.00;;;;;;5033479;28;20483;-77
2023/05/10 07:31:12;;;;;;;1.90;0.90;;;16.30;85.50;;;;;;5033427;28;20452;-76
2023/05/10 07:33:39;;;;;;;1.80;0.90;;;16.20;84.80;;;;;;5033328;28;20514;-77
2023/05/10 07:36:06;;;;;;;1.90;0.90;;;16.20;84.60;;;;;;5033467;28;20443;-77
2023/05/10 07:38:33;;;;;;;1.80;0.80;;;16.10;85.00;;;;;;5033313;28;20475;-77
2023/05/10 07:41:00;;;;;;;1.73;1.00;;;15.90;84.70;;;;;;5033329;28;20463;-77
2023/05/10 07:43:27;;;;;;;2.13;1.10;;;16.10;86.00;;;;;;5033173;28;20479;-77
2023/05/10 07:45:57;;;;;;;1.60;0.90;;;16.20;84.00;;;;;;5033011;28;20967;-77
2023/05/10 07:48:23;;;;;;;2.50;0.80;;;16.20;84.10;;;;;;5033709;28;20455;-77
2023/05/10 07:50:50;;;;;;;1.93;0.83;;;16.00;83.80;;;;;;5033257;28;20458;-77
2023/05/10 07:53:18;;;;;;;1.70;0.80;;;16.00;85.00;;;;;;5033164;28;20515;-78
2023/05/10 07:55:45;;;;;;;1.93;0.80;;;16.00;85.30;;;;;;5033472;28;20447;-77
2023/05/10 07:58:11;;;;;;;1.70;0.93;;;16.20;84.80;;;;;;5033273;28;20454;-77
2023/05/10 08:00:39;;;;;;;2.40;0.90;;;16.40;84.60;;;;;;5032898;28;20810;-77
2023/05/10 08:03:07;;;;;;;2.00;0.90;;;16.40;82.50;;;;;;5032761;28;20938;-77
2023/05/10 08:05:33;;;;;;;4.90;1.00;;;16.40;82.80;;;;;;5033082;28;20845;-77
2023/05/10 08:08:00;;;;;;;2.07;0.80;;;16.50;82.80;;;;;;5033100;28;20802;-77
2023/05/10 08:10:27;;;;;;;1.50;0.77;;;16.70;82.20;;;;;;5033258;28;20470;-77
2023/05/10 08:12:53;;;;;;;2.23;0.87;;;16.90;82.20;;;;;;5033741;28;20444;-77
2023/05/10 08:15:20;;;;;;;1.60;0.80;;;16.80;81.60;;;;;;5036793;28;20475;-77
2023/05/10 08:17:47;;;;;;;1.50;0.70;;;16.80;80.00;;;;;;5036982;28;20447;-76
2023/05/10 08:20:18;;;;;;;1.60;0.67;;;16.60;81.70;;;;;;5036970;28;20450;-77
2023/05/10 08:22:46;;;;;;;1.63;0.80;;;16.50;81.00;;;;;;5036538;28;20858;-77
2023/05/10 08:25:12;;;;;;;3.20;1.33;;;16.30;81.70;;;;;;5036777;28;20503;-77
2023/05/10 08:27:39;;;;;;;1.60;0.73;;;16.10;82.50;;;;;;5036565;28;20944;-77
2023/05/10 08:30:07;;;;;;;1.90;0.70;;;16.50;82.70;;;;;;5036446;28;21079;-77
2023/05/10 08:32:34;;;;;;;3.10;0.73;;;16.40;81.40;;;;;;5036228;28;20450;-77
2023/05/10 08:35:01;;;;;;;1.80;0.90;;;16.40;83.20;;;;;;5036654;28;20471;-76
2023/05/10 08:37:32;;;;;;;1.60;0.70;;;16.70;82.50;;;;;;5036636;28;20443;-77
2023/05/10 08:39:59;;;;;;;1.67;0.80;;;16.80;81.60;;;;;;5036450;28;20436;-77
2023/05/10 08:42:29;;;;;;;1.50;0.60;;;16.70;80.70;;;;;;5036520;28;20890;-77
2023/05/10 08:44:57;;;;;;;1.50;0.70;;;16.60;82.50;;;;;;5036456;28;20467;-77
2023/05/10 08:47:26;;;;;;;1.90;0.80;;;16.70;81.80;;;;;;5036487;28;20809;-77
2023/05/10 08:49:53;;;;;;;2.13;1.00;;;16.70;81.00;;;;;;5036494;28;20451;-76
2023/05/10 08:52:20;;;;;;;1.90;0.90;;;16.80;81.70;;;;;;5036395;28;20446;-77
2023/05/10 08:54:49;;;;;;;1.83;0.80;;;16.80;81.10;;;;;;5036266;28;20502;-77
2023/05/10 08:57:16;;;;;;;2.17;0.70;;;16.90;81.90;;;;;;5036336;28;20457;-76
2023/05/10 08:59:42;;;;;;;2.57;0.80;;;17.00;80.80;;;;;;5036206;28;20447;-76
2023/05/10 09:02:12;;;;;;;3.63;0.90;;;17.30;80.40;;;;;;5035823;28;20471;-76
2023/05/10 09:04:39;;;;;;;1.73;0.70;;;17.50;80.10;;;;;;5036105;28;20471;-77
2023/05/10 09:07:07;;;;;;;1.60;0.70;;;17.50;77.50;;;;;;5036123;28;20477;-77
2023/05/10 09:09:34;;;;;;;2.33;0.80;;;17.50;76.00;;;;;;5035768;28;20455;-77
2023/05/10 09:12:02;;;;;;;1.50;0.70;;;17.50;76.80;;;;;;5036898;28;20574;-76
2023/05/10 09:14:30;;;;;;;2.37;0.60;;;17.50;78.10;;;;;;5035577;28;21008;-78
2023/05/10 09:16:57;;;;;;;2.73;0.70;;;17.40;75.90;;;;;;5035987;28;20455;-76
2023/05/10 09:19:24;;;;;;;3.10;0.83;;;17.50;75.60;;;;;;5035972;28;20452;-76
2023/05/10 09:21:51;;;;;;;2.00;0.90;;;17.70;77.20;;;;;;5035789;28;20451;-76
2023/05/10 09:24:17;;;;;;;2.17;0.63;;;18.00;76.90;;;;;;5034803;28;20521;-76
2023/05/10 09:26:48;;;;;;;1.97;0.70;;;17.90;74.50;;;;;;5035486;28;20803;-76
2023/05/10 09:29:16;;;;;;;3.87;0.70;;;17.90;73.90;;;;;;5035452;28;21008;-76
2023/05/10 09:31:50;;;;;;;2.20;0.80;;;17.90;74.20;;;;;;5035656;28;20451;-76
2023/05/10 09:34:18;;;;;;;1.50;0.60;;;18.00;74.40;;;;;;5035619;28;20467;-77
2023/05/10 09:36:56;;;;;;;2.00;0.70;;;18.00;73.90;;;;;;5035255;28;20928;-76
2023/05/10 09:39:31;;;;;;;4.03;0.80;;;18.00;73.60;;;;;;5035588;28;20431;-76
2023/05/10 09:41:59;;;;;;;1.70;0.70;;;18.00;73.60;;;;;;5035063;28;20970;-76
2023/05/10 09:44:28;;;;;;;1.70;0.70;;;17.90;73.30;;;;;;5035348;28;20471;-76
2023/05/10 09:46:54;;;;;;;1.60;0.77;;;17.80;73.30;;;;;;5035589;28;20498;-76
2023/05/10 09:49:22;;;;;;;1.50;0.67;;;17.90;73.90;;;;;;5035295;28;20482;-76
2023/05/10 09:52:03;;;;;;;1.40;0.60;;;17.90;72.80;;;;;;5035247;28;20447;-76
2023/05/10 09:54:30;;;;;;;1.83;0.60;;;18.10;71.60;;;;;;5035153;28;20525;-76
2023/05/10 09:56:56;;;;;;;1.40;0.60;;;18.20;71.50;;;;;;5035122;28;20455;-76
2023/05/10 09:59:26;;;;;;;1.40;0.60;;;18.40;71.80;;;;;;5035078;28;20498;-76
2023/05/10 10:01:56;;;;;;;1.70;0.70;;;18.60;70.80;;;;;;5034965;28;20521;-76
2023/05/10 10:04:22;;;;;;;1.70;0.70;;;18.70;72.40;;;;;;5034959;28;20801;-76
2023/05/10 10:07:00;;;;;;;1.40;0.60;;;18.80;71.10;;;;;;5034986;28;20509;-76
2023/05/10 10:09:27;;;;;;;1.43;0.60;;;18.40;70.80;;;;;;5035007;28;20538;-76
2023/05/10 10:11:55;;;;;;;2.20;0.70;;;18.50;70.20;;;;;;5034548;28;20944;-76
2023/05/10 10:14:23;;;;;;;1.60;0.67;;;18.70;68.60;;;;;;5035139;28;20495;-76
2023/05/10 10:16:50;;;;;;;1.60;0.60;;;18.60;70.30;;;;;;5034480;28;21028;-76
2023/05/10 10:19:19;;;;;;;1.50;0.60;;;18.70;70.00;;;;;;5034742;28;20554;-77
2023/05/10 10:21:46;;;;;;;1.50;0.60;;;18.90;69.80;;;;;;5035155;28;20538;-77
2023/05/10 10:24:12;;;;;;;2.67;0.87;;;19.10;69.50;;;;;;5035485;28;20491;-76
2023/05/10 10:26:42;;;;;;;1.70;0.70;;;19.40;70.70;;;;;;5034597;28;20502;-76
2023/05/10 10:29:19;;;;;;;2.00;0.70;;;19.60;68.20;;;;;;5034506;28;20448;-77
2023/05/10 10:31:50;;;;;;;1.90;0.80;;;19.80;68.20;;;;;;5034185;28;20844;-77
2023/05/10 10:34:27;;;;;;;1.60;0.70;;;19.70;67.10;;;;;;5034381;28;20475;-76
2023/05/10 10:36:56;;;;;;;2.10;0.67;;;19.50;66.20;;;;;;5034150;28;20514;-77
2023/05/10 10:39:24;;;;;;;2.53;0.63;;;19.40;66.90;;;;;;5034246;28;20875;-76
2023/05/10 10:41:52;;;;;;;2.17;0.90;;;19.30;66.30;;;;;;5034428;28;20898;-76
2023/05/10 10:44:27;;;;;;;2.10;0.67;;;19.20;66.00;;;;;;5034179;28;20902;-76
2023/05/10 10:47:05;;;;;;;1.50;0.60;;;19.10;68.30;;;;;;5034907;28;20443;-76
2023/05/10 10:49:37;;;;;;;1.50;0.70;;;19.20;67.70;;;;;;5034764;28;20438;-77
2023/05/10 10:52:22;;;;;;;1.57;0.80;;;19.30;67.00;;;;;;5034184;28;20498;-77
2023/05/10 10:54:53;;;;;;;1.70;0.60;;;19.10;66.70;;;;;;5034176;28;20471;-76
2023/05/10 10:57:22;;;;;;;1.77;0.77;;;18.90;67.70;;;;;;5034125;28;20456;-76
2023/05/10 10:59:49;;;;;;;2.93;0.70;;;18.60;67.10;;;;;;5033778;28;20530;-77
2023/05/10 11:02:48;;;;;;;1.87;0.80;;;18.30;66.90;;;;;;5033824;28;20447;-76
2023/05/10 11:05:33;;;;;;;1.63;0.70;;;18.10;68.50;;;;;;5001000;28;20515;-76
2023/05/10 11:08:01;;;;;;;1.50;0.70;;;17.90;67.80;;;;;;5033871;28;20439;-77
2023/05/10 11:10:28;;;;;;;2.07;0.77;;;17.70;66.80;;;;;;5033746;28;20443;-76
2023/05/10 11:13:01;;;;;;;2.40;0.80;;;17.30;66.40;;;;;;5033704;28;20439;-76
2023/05/10 11:15:31;;;;;;;1.47;0.60;;;17.00;67.70;;;;;;5033597;28;20567;-76
2023/05/10 11:17:58;;;;;;;1.87;0.60;;;16.90;68.00;;;;;;5034055;28;20517;-76
2023/05/10 11:20:33;;;;;;;1.90;0.73;;;17.00;69.50;;;;;;5033611;28;20443;-76
2023/05/10 11:23:12;;;;;;;1.60;0.80;;;16.90;70.40;;;;;;5033303;28;20995;-76
2023/05/10 11:25:43;;;;;;;1.67;0.70;;;16.70;69.60;;;;;;5033535;28;20471;-76
2023/05/10 11:28:10;;;;;;;1.60;0.70;;;16.50;70.60;;;;;;5033698;28;20857;-77
2023/05/10 11:30:37;;;;;;;3.13;0.70;;;16.50;70.70;;;;;;5033582;28;20458;-77
2023/05/10 11:33:04;;;;;;;1.60;0.70;;;16.40;71.70;;;;;;5033420;28;20951;-77
2023/05/10 11:35:37;;;;;;;1.50;0.60;;;16.50;71.90;;;;;;5033655;28;20561;-77
2023/05/10 11:38:05;;;;;;;1.83;0.60;;;16.70;72.50;;;;;;5033593;28;20439;-77
2023/05/10 11:40:32;;;;;;;1.60;0.70;;;16.90;72.20;;;;;;5033320;28;20949;-77
2023/05/10 11:42:59;;;;;;;1.60;0.60;;;16.90;71.10;;;;;;5033194;28;21003;-77
2023/05/10 11:45:27;;;;;;;2.10;0.80;;;17.00;71.20;;;;;;5033079;28;20980;-77
2023/05/10 11:47:54;;;;;;;1.87;0.60;;;17.10;69.70;;;;;;5032989;28;20550;-76
2023/05/10 11:50:21;;;;;;;1.70;0.67;;;17.10;69.70;;;;;;5033634;28;20522;-77
2023/05/10 11:52:52;;;;;;;1.70;0.70;;;17.20;70.60;;;;;;5033607;28;20470;-77
2023/05/10 11:55:19;;;;;;;1.60;0.70;;;17.40;69.30;;;;;;5033172;28;21023;-76
2023/05/10 11:57:46;;;;;;;2.40;0.70;;;17.50;69.50;;;;;;5033490;28;20444;-77
2023/05/10 12:00:13;;;;;;;1.50;0.70;;;17.60;68.50;;;;;;5033388;28;20534;-78
2023/05/10 12:02:41;;;;;;;1.60;0.67;;;17.60;68.90;;;;;;5033000;28;20451;-77
2023/05/10 12:05:08;;;;;;;1.50;0.70;;;17.70;68.70;;;;;;5032882;28;21054;-77
2023/05/10 12:07:35;;;;;;;1.90;0.90;;;17.80;68.00;;;;;;5033202;28;20451;-77
2023/05/10 12:10:09;;;;;;;1.60;0.70;;;17.90;69.00;;;;;;5033183;28;20543;-77
2023/05/10 12:12:41;;;;;;;1.50;0.70;;;18.00;68.00;;;;;;5033328;28;20439;-78
2023/05/10 12:15:12;;;;;;;2.13;0.90;;;18.10;66.70;;;;;;5032824;28;20511;-78
2023/05/10 12:17:39;;;;;;;1.80;0.90;;;18.10;68.90;;;;;;5033292;28;20440;-77
2023/05/10 12:20:19;;;;;;;1.70;0.70;;;18.40;67.70;;;;;;5033296;28;20482;-77
2023/05/10 12:22:47;;;;;;;1.83;0.70;;;18.50;67.20;;;;;;5033020;28;20435;-78
2023/05/10 12:25:15;;;;;;;2.00;0.70;;;18.50;66.70;;;;;;5033132;28;20480;-77
2023/05/10 12:27:48;;;;;;;1.40;0.70;;;18.50;67.00;;;;;;5033380;28;20448;-78
2023/05/10 12:30:20;;;;;;;1.40;0.70;;;18.50;66.90;;;;;;5033378;28;20443;-77
2023/05/10 12:32:46;;;;;;;2.33;0.80;;;18.60;66.50;;;;;;5033054;28;20436;-77
2023/05/10 12:35:13;;;;;;;2.77;0.70;;;18.50;66.40;;;;;;5032612;28;20468;-77
2023/05/10 12:37:40;;;;;;;1.73;0.67;;;18.60;66.00;;;;;;5033054;28;20455;-77
2023/05/10 12:40:09;;;;;;;1.67;0.73;;;18.50;66.10;;;;;;5033145;28;20448;-77
2023/05/10 12:42:37;;;;;;;1.60;0.80;;;18.40;66.20;;;;;;5032978;28;20498;-77
2023/05/10 12:45:05;;;;;;;2.20;0.80;;;18.20;65.80;;;;;;5032809;28;20503;-78
2023/05/10 12:47:31;;;;;;;1.40;0.60;;;17.90;67.20;;;;;;5033063;28;20447;-77
2023/05/10 12:49:58;;;;;;;1.60;0.70;;;18.00;68.50;;;;;;5032961;28;20482;-77
2023/05/10 12:52:25;;;;;;;1.50;0.70;;;17.90;68.20;;;;;;5032892;28;20451;-77
2023/05/10 12:54:52;;;;;;;1.60;0.80;;;17.90;67.30;;;;;;5032669;28;20999;-77
2023/05/10 12:57:19;;;;;;;1.90;0.80;;;17.80;68.10;;;;;;5032834;28;20501;-77
2023/05/10 12:59:47;;;;;;;2.03;0.80;;;17.80;68.10;;;;;;5034382;28;20950;-78
2023/05/10 13:02:14;;;;;;;1.90;0.60;;;18.00;67.80;;;;;;5036440;28;20451;-76
2023/05/10 13:04:41;;;;;;;1.50;0.70;;;18.20;68.00;;;;;;5036134;28;20486;-77
2023/05/10 13:07:08;;;;;;;1.60;0.80;;;18.20;66.20;;;;;;5036212;28;21020;-77
2023/05/10 13:09:35;;;;;;;1.60;0.80;;;18.40;66.30;;;;;;5035811;28;20948;-77
2023/05/10 13:12:02;;;;;;;1.80;0.70;;;18.40;64.90;;;;;;5035782;28;20941;-77
2023/05/10 13:14:30;;;;;;;3.30;0.90;;;18.40;63.60;;;;;;5035655;28;20482;-78
2023/05/10 13:16:58;;;;;;;2.50;0.80;;;18.50;63.00;;;;;;5035888;28;20944;-77
2023/05/10 13:19:25;;;;;;;3.43;0.90;;;18.60;62.30;;;;;;5036230;28;20542;-77
2023/05/10 13:21:51;;;;;;;1.67;0.73;;;18.70;63.60;;;;;;5035871;28;20543;-77
2023/05/10 13:24:18;;;;;;;2.07;0.90;;;18.70;61.80;;;;;;5035643;28;20487;-76
2023/05/10 13:26:45;;;;;;;2.00;0.77;;;18.70;62.60;;;;;;5035709;28;20448;-77
2023/05/10 13:29:11;;;;;;;1.87;0.80;;;18.80;62.30;;;;;;5036272;28;20457;-77
2023/05/10 13:31:38;;;;;;;1.70;0.70;;;19.00;59.10;;;;;;5035647;28;20447;-77
2023/05/10 13:34:06;;;;;;;2.37;0.90;;;19.20;60.60;;;;;;5035542;28;20467;-77
2023/05/10 13:36:33;;;;;;;1.63;0.80;;;19.30;60.60;;;;;;5035727;28;20531;-77
2023/05/10 13:39:01;;;;;;;1.70;0.90;;;19.40;60.60;;;;;;5035188;28;20826;-77
2023/05/10 13:41:27;;;;;;;1.50;0.70;;;19.30;60.90;;;;;;5036196;28;20479;-77
2023/05/10 13:43:54;;;;;;;2.30;0.73;;;19.30;61.30;;;;;;5035259;28;20487;-78
2023/05/10 13:46:21;;;;;;;1.73;0.93;;;19.30;61.80;;;;;;5035397;28;20451;-77
2023/05/10 13:48:47;;;;;;;2.30;0.80;;;19.20;61.50;;;;;;5035360;28;20513;-77
2023/05/10 13:51:15;;;;;;;2.10;0.90;;;19.30;63.10;;;;;;5035300;28;20876;-77
2023/05/10 13:53:42;;;;;;;1.50;0.63;;;19.30;63.20;;;;;;5035205;28;20464;-78
2023/05/10 13:56:09;;;;;;;1.87;0.73;;;19.50;60.40;;;;;;5034957;28;20872;-77
2023/05/10 13:58:36;;;;;;;2.60;0.80;;;19.50;59.60;;;;;;5035351;28;20444;-77
2023/05/10 14:01:02;;;;;;;1.63;0.80;;;19.40;60.20;;;;;;5034890;28;20899;-77
2023/05/10 14:03:29;;;;;;;1.93;0.80;;;19.40;60.70;;;;;;5035085;28;20922;-78
2023/05/10 14:05:56;;;;;;;1.90;0.63;;;19.20;61.90;;;;;;5034989;28;20565;-77
2023/05/10 14:08:24;;;;;;;2.50;0.90;;;19.40;61.70;;;;;;5035094;28;20507;-77
2023/05/10 14:10:52;;;;;;;1.60;0.70;;;19.50;62.00;;;;;;5034394;28;20493;-77
2023/05/10 14:13:18;;;;;;;2.43;1.10;;;19.60;61.20;;;;;;5034847;28;20459;-78
2023/05/10 14:15:45;;;;;;;1.97;0.80;;;19.60;60.70;;;;;;5034757;28;20495;-77
2023/05/10 14:18:12;;;;;;;4.87;0.90;;;19.30;59.80;;;;;;5034916;28;20470;-77
2023/05/10 14:20:39;;;;;;;1.70;0.80;;;19.00;60.70;;;;;;5035009;28;20446;-77
2023/05/10 14:23:06;;;;;;;2.33;0.80;;;18.90;61.10;;;;;;5034366;28;20952;-76
2023/05/10 14:25:34;;;;;;;1.60;0.70;;;18.80;59.70;;;;;;5034523;28;20491;-77
2023/05/10 14:28:02;;;;;;;1.60;0.70;;;18.80;61.00;;;;;;5034667;28;20813;-77
2023/05/10 14:30:29;;;;;;;1.53;0.70;;;18.80;60.20;;;;;;5034188;28;20871;-77
2023/05/10 14:32:58;;;;;;;1.47;0.77;;;18.60;60.50;;;;;;5034487;28;20452;-76
2023/05/10 14:35:24;;;;;;;1.50;0.70;;;18.60;60.00;;;;;;5034123;28;20471;-77
2023/05/10 14:37:51;;;;;;;2.37;0.83;;;18.60;60.20;;;;;;5034830;28;20451;-77
2023/05/10 14:40:18;;;;;;;1.40;0.60;;;18.70;61.40;;;;;;5035033;28;20451;-77
2023/05/10 14:42:46;;;;;;;2.00;0.70;;;18.80;60.80;;;;;;5034367;28;20447;-77
2023/05/10 14:45:13;;;;;;;1.73;0.97;;;18.90;60.70;;;;;;5034161;28;20498;-77
2023/05/10 14:47:40;;;;;;;1.70;0.60;;;19.10;60.70;;;;;;5035280;28;20513;-77
2023/05/10 14:50:07;;;;;;;1.80;0.70;;;19.10;60.10;;;;;;5034151;28;20448;-77
2023/05/10 14:52:34;;;;;;;1.50;0.70;;;19.20;59.80;;;;;;5034260;28;20531;-78
2023/05/10 14:55:01;;;;;;;1.50;0.70;;;19.20;59.80;;;;;;5034084;28;20474;-78
2023/05/10 14:57:29;;;;;;;1.50;0.70;;;19.30;59.60;;;;;;5034096;28;20581;-77
2023/05/10 14:59:57;;;;;;;1.70;1.00;;;19.30;60.10;;;;;;5033923;28;20451;-78
2023/05/10 15:02:24;;;;;;;2.37;0.70;;;19.10;60.80;;;;;;5034062;28;20444;-78
2023/05/10 15:04:51;;;;;;;1.70;0.80;;;19.30;61.00;;;;;;5033917;28;20514;-78
2023/05/10 15:07:18;;;;;;;1.67;0.67;;;19.30;60.90;;;;;;5034036;28;20534;-78
2023/05/10 15:09:45;;;;;;;1.67;0.70;;;19.30;60.50;;;;;;5033935;28;20455;-78
2023/05/10 15:12:11;;;;;;;1.93;0.70;;;19.30;59.80;;;;;;5033935;28;20448;-78
2023/05/10 15:14:38;;;;;;;2.20;0.70;;;19.20;60.70;;;;;;5033367;28;20547;-78
2023/05/10 15:17:08;;;;;;;1.50;0.70;;;19.40;61.00;;;;;;5033857;28;20455;-77
2023/05/10 15:19:34;;;;;;;1.50;0.70;;;19.30;62.40;;;;;;5033890;28;20891;-78
2023/05/10 15:22:01;;;;;;;1.50;0.70;;;19.30;62.10;;;;;;5033527;28;20463;-77
2023/05/10 15:24:28;;;;;;;1.80;0.80;;;19.40;61.90;;;;;;5033060;28;20483;-77
2023/05/10 15:26:55;;;;;;;2.60;0.83;;;19.50;61.00;;;;;;5033490;28;20459;-77
2023/05/10 15:29:22;;;;;;;2.33;0.90;;;19.50;60.50;;;;;;5033534;28;20447;-77
2023/05/10 15:31:49;;;;;;;1.67;0.70;;;19.50;59.90;;;;;;5033528;28;20501;-77
2023/05/10 15:34:18;;;;;;;1.50;0.70;;;19.30;60.60;;;;;;5033078;28;20872;-77
2023/05/10 15:36:45;;;;;;;1.60;0.70;;;19.30;61.60;;;;;;5033995;28;20534;-77
2023/05/10 15:39:12;;;;;;;1.80;0.80;;;19.30;62.00;;;;;;5033449;28;20875;-78
2023/05/10 15:41:38;;;;;;;2.23;0.70;;;19.40;61.80;;;;;;5033406;28;20497;-77
2023/05/10 15:44:05;;;;;;;1.80;0.70;;;19.40;62.60;;;;;;5033289;28;20610;-77
2023/05/10 15:46:32;;;;;;;1.93;0.77;;;19.60;61.60;;;;;;5033115;28;20447;-77
2023/05/10 15:48:59;;;;;;;2.33;0.70;;;19.80;61.60;;;;;;5033402;28;20509;-77
2023/05/10 15:51:27;;;;;;;1.43;0.60;;;19.80;59.40;;;;;;5033502;28;20439;-77
2023/05/10 15:53:54;;;;;;;1.60;0.80;;;19.90;60.60;;;;;;5033452;28;20471;-77
2023/05/10 15:56:21;;;;;;;1.43;0.70;;;19.90;59.50;;;;;;5033374;28;20471;-76
2023/05/10 15:58:47;;;;;;;1.60;0.70;;;19.70;59.20;;;;;;5033338;28;20825;-77
2023/05/10 16:01:14;;;;;;;2.30;0.80;;;19.70;58.50;;;;;;5032925;28;20980;-77
2023/05/10 16:03:41;;;;;;;1.87;0.73;;;19.70;59.50;;;;;;5033510;28;20464;-77
2023/05/10 16:06:08;;;;;;;1.57;0.67;;;19.80;60.50;;;;;;5033158;28;20483;-77
2023/05/10 16:08:36;;;;;;;1.70;0.70;;;19.70;59.50;;;;;;5033285;28;20505;-77
2023/05/10 16:11:04;;;;;;;1.57;0.70;;;19.70;59.90;;;;;;5033135;28;20481;-77
2023/05/10 16:13:30;;;;;;;7.50;0.80;;;19.80;59.30;;;;;;5032698;28;20510;-77
2023/05/10 16:15:57;;;;;;;1.70;0.70;;;19.80;60.10;;;;;;5033438;28;20515;-77
2023/05/10 16:18:24;;;;;;;2.07;0.70;;;19.70;59.10;;;;;;5033018;28;20447;-77
2023/05/10 16:20:51;;;;;;;1.40;0.60;;;19.80;58.90;;;;;;5032981;28;20451;-77
2023/05/10 16:23:18;;;;;;;2.80;0.80;;;19.60;58.80;;;;;;5032919;28;20501;-77
2023/05/10 16:25:47;;;;;;;3.97;1.20;;;19.40;59.70;;;;;;5032834;28;20483;-77
2023/05/10 16:28:13;;;;;;;1.60;0.70;;;19.50;60.20;;;;;;5032663;28;20941;-77
2023/05/10 16:30:40;;;;;;;1.50;0.60;;;19.50;59.70;;;;;;5032524;28;20851;-77
2023/05/10 16:33:07;;;;;;;1.50;0.73;;;19.50;59.60;;;;;;5032852;28;20443;-77
2023/05/10 16:35:33;;;;;;;1.50;0.70;;;19.40;59.60;;;;;;5035740;28;20879;-77
2023/05/10 16:38:00;;;;;;;1.60;0.80;;;19.30;61.10;;;;;;5036363;28;21003;-77
2023/05/10 16:40:27;;;;;;;1.80;0.80;;;19.30;60.70;;;;;;5036592;28;20447;-77
2023/05/10 16:42:55;;;;;;;1.50;0.70;;;19.30;61.20;;;;;;5036311;28;20529;-77
2023/05/10 16:45:21;;;;;;;1.70;0.60;;;19.30;61.30;;;;;;5036289;28;20483;-77
2023/05/10 16:47:48;;;;;;;1.60;0.80;;;19.30;60.70;;;;;;5036498;28;20455;-77
2023/05/10 16:50:15;;;;;;;1.67;0.67;;;19.20;60.80;;;;;;5036453;28;20448;-77
2023/05/10 16:52:42;;;;;;;1.50;0.70;;;19.20;60.60;;;;;;5036481;28;20460;-77